createdAt,value
2023-01-29T00:01:42.759Z,2.78
2023-01-29T00:04:10.493Z,2.83
2023-01-29T00:06:41.528Z,2.47
2023-01-29T00:09:09.289Z,3.00
2023-01-29T00:11:36.932Z,3.28
2023-01-29T00:14:04.680Z,3.30
2023-01-29T00:16:32.440Z,2.92
2023-01-29T00:19:00.207Z,2.25
2023-01-29T00:21:29.113Z,2.50
2023-01-29T00:23:56.895Z,3.13
2023-01-29T00:26:24.610Z,2.92
2023-01-29T00:28:52.459Z,2.92
2023-01-29T00:31:21.376Z,2.87
2023-01-29T00:33:49.323Z,3.40
2023-01-29T00:36:17.620Z,3.83
2023-01-29T00:38:46.552Z,3.77
2023-01-29T00:41:35.762Z,3.50
2023-01-29T00:44:22.287Z,2.80
2023-01-29T00:46:50.142Z,2.90
2023-01-29T00:49:18.040Z,3.13
2023-01-29T00:52:05.749Z,3.58
2023-01-29T00:54:33.493Z,3.10
2023-01-29T00:57:01.706Z,3.10
2023-01-29T00:59:29.664Z,3.33
2023-01-29T01:02:16.353Z,3.55
2023-01-29T01:04:44.162Z,2.93
2023-01-29T01:07:14.918Z,5.80
2023-01-29T01:10:01.377Z,4.10
2023-01-29T01:12:29.315Z,3.47
2023-01-29T01:14:57.041Z,4.65
2023-01-29T01:17:24.938Z,4.15
2023-01-29T01:19:52.663Z,3.25
2023-01-29T01:22:20.451Z,4.30
2023-01-29T01:24:48.131Z,3.13
2023-01-29T01:27:16.571Z,3.50
2023-01-29T01:29:44.240Z,4.80
2023-01-29T01:32:11.976Z,4.25
2023-01-29T01:34:39.644Z,4.22
2023-01-29T01:37:07.421Z,4.17
2023-01-29T01:39:35.137Z,4.28
2023-01-29T01:42:02.986Z,5.03
2023-01-29T01:44:49.386Z,4.85
2023-01-29T01:47:17.157Z,4.60
2023-01-29T01:49:45.278Z,4.50
2023-01-29T01:52:13.046Z,5.55
2023-01-29T01:54:40.785Z,3.30
2023-01-29T01:57:15.841Z,4.38
2023-01-29T01:59:50.143Z,4.38
2023-01-29T02:02:36.248Z,5.00
2023-01-29T02:05:22.901Z,4.75
2023-01-29T02:08:09.340Z,7.05
2023-01-29T02:10:39.164Z,5.70
2023-01-29T02:13:07.445Z,4.20
2023-01-29T02:15:35.149Z,4.50
2023-01-29T02:18:02.880Z,7.88
2023-01-29T02:20:32.172Z,5.53
2023-01-29T02:23:06.250Z,10.77
2023-01-29T02:25:43.957Z,11.50
2023-01-29T02:28:23.382Z,6.07
2023-01-29T02:30:51.165Z,5.50
2023-01-29T02:33:27.778Z,5.15
2023-01-29T02:36:00.570Z,5.13
2023-01-29T02:38:32.561Z,5.00
2023-01-29T02:41:05.651Z,5.15
2023-01-29T02:43:35.662Z,5.70
2023-01-29T02:46:06.175Z,5.37
2023-01-29T02:48:44.831Z,4.95
2023-01-29T02:51:15.261Z,5.32
2023-01-29T02:53:46.335Z,6.43
2023-01-29T02:56:25.179Z,5.50
2023-01-29T02:58:58.598Z,4.90
2023-01-29T03:01:46.739Z,5.60
2023-01-29T03:04:17.252Z,5.90
2023-01-29T03:06:46.589Z,4.50
2023-01-29T03:09:16.715Z,5.80
2023-01-29T03:11:46.318Z,5.90
2023-01-29T03:14:16.959Z,4.70
2023-01-29T03:16:48.873Z,4.75
2023-01-29T03:19:19.006Z,4.70
2023-01-29T03:21:55.349Z,4.97
2023-01-29T03:24:46.486Z,3.78
2023-01-29T03:27:32.574Z,4.95
2023-01-29T03:30:18.976Z,4.80
2023-01-29T03:32:46.750Z,5.93
2023-01-29T03:35:14.427Z,5.30
2023-01-29T03:37:46.363Z,5.40
2023-01-29T03:40:14.468Z,6.50
2023-01-29T03:42:50.808Z,6.47
2023-01-29T03:45:18.659Z,6.00
2023-01-29T03:47:47.484Z,6.82
2023-01-29T03:50:21.376Z,6.35
2023-01-29T03:53:01.727Z,6.72
2023-01-29T03:55:43.148Z,6.47
2023-01-29T03:58:17.470Z,7.43
2023-01-29T04:00:46.452Z,7.07
2023-01-29T04:03:17.067Z,6.40
2023-01-29T04:05:46.114Z,6.85
2023-01-29T04:08:15.415Z,7.28
2023-01-29T04:10:43.207Z,7.37
2023-01-29T04:13:11.660Z,8.43
2023-01-29T04:15:41.348Z,8.35
2023-01-29T04:18:09.058Z,8.10
2023-01-29T04:20:36.947Z,7.17
2023-01-29T04:23:06.865Z,7.30
2023-01-29T04:25:40.295Z,7.88
2023-01-29T04:28:18.697Z,8.17
2023-01-29T04:30:54.127Z,8.40
2023-01-29T04:33:40.171Z,7.43
2023-01-29T04:36:29.803Z,6.67
2023-01-29T04:39:12.065Z,7.70
2023-01-29T04:41:42.922Z,7.07
2023-01-29T04:44:13.676Z,6.97
2023-01-29T04:46:44.524Z,7.60
2023-01-29T04:49:17.537Z,7.25
2023-01-29T04:51:45.328Z,7.90
2023-01-29T04:54:33.314Z,7.03
2023-01-29T04:57:23.367Z,10.65
2023-01-29T04:59:56.820Z,8.63
2023-01-29T05:02:24.604Z,8.17
2023-01-29T05:04:52.448Z,8.18
2023-01-29T05:07:20.202Z,9.50
2023-01-29T05:09:47.951Z,9.32
2023-01-29T05:12:15.823Z,10.73
2023-01-29T05:14:43.699Z,9.45
2023-01-29T05:17:13.608Z,9.43
2023-01-29T05:19:41.363Z,8.23
2023-01-29T05:22:10.261Z,9.07
2023-01-29T05:24:38.049Z,9.77
2023-01-29T05:27:24.355Z,10.47
2023-01-29T05:29:52.177Z,9.60
2023-01-29T05:32:19.999Z,10.07
2023-01-29T05:34:47.776Z,7.35
2023-01-29T05:37:15.447Z,9.43
2023-01-29T05:39:43.174Z,9.60
2023-01-29T05:42:10.837Z,9.23
2023-01-29T05:44:38.614Z,10.17
2023-01-29T05:47:06.636Z,9.52
2023-01-29T05:49:36.756Z,8.55
2023-01-29T05:52:06.128Z,10.40
2023-01-29T05:54:33.832Z,8.77
2023-01-29T05:57:01.529Z,9.98
2023-01-29T05:59:31.346Z,9.68
2023-01-29T06:01:59.229Z,9.57
2023-01-29T06:04:26.970Z,10.38
2023-01-29T06:06:54.734Z,10.45
2023-01-29T06:09:22.401Z,9.87
2023-01-29T06:11:50.148Z,10.05
2023-01-29T06:14:17.875Z,10.00
2023-01-29T06:16:45.700Z,10.60
2023-01-29T06:19:13.419Z,8.38
2023-01-29T06:21:41.166Z,9.02
2023-01-29T06:24:09.173Z,8.60
2023-01-29T06:26:36.991Z,8.40
2023-01-29T06:29:04.926Z,9.40
2023-01-29T06:31:38.815Z,8.77
2023-01-29T06:34:07.992Z,7.43
2023-01-29T06:36:35.660Z,9.35
2023-01-29T06:39:03.511Z,10.13
2023-01-29T06:41:31.220Z,7.97
2023-01-29T06:43:59.012Z,8.23
2023-01-29T06:46:26.832Z,8.02
2023-01-29T06:48:54.531Z,7.40
2023-01-29T06:51:23.145Z,7.50
2023-01-29T06:53:50.840Z,8.35
2023-01-29T06:56:18.745Z,7.68
2023-01-29T06:58:46.403Z,7.90
2023-01-29T07:01:29.270Z,7.80
2023-01-29T07:04:01.869Z,7.45
2023-01-29T07:06:30.120Z,7.27
2023-01-29T07:08:57.949Z,7.70
2023-01-29T07:11:25.696Z,8.57
2023-01-29T07:13:53.455Z,8.48
2023-01-29T07:16:21.125Z,7.37
2023-01-29T07:18:48.883Z,8.50
2023-01-29T07:21:16.622Z,7.03
2023-01-29T07:23:44.451Z,7.60
2023-01-29T07:26:13.567Z,7.88
2023-01-29T07:28:41.448Z,7.97
2023-01-29T07:31:09.408Z,9.43
2023-01-29T07:33:37.207Z,8.27
2023-01-29T07:36:08.579Z,8.05
2023-01-29T07:38:36.398Z,9.60
2023-01-29T07:41:04.260Z,7.17
2023-01-29T07:43:33.436Z,10.27
2023-01-29T07:46:04.848Z,8.52
2023-01-29T07:48:32.686Z,7.47
2023-01-29T07:51:03.528Z,8.55
2023-01-29T07:53:31.391Z,8.40
2023-01-29T07:55:59.516Z,8.97
2023-01-29T07:58:27.270Z,9.50
2023-01-29T08:00:55.132Z,9.63
2023-01-29T08:03:22.847Z,9.77
2023-01-29T08:05:50.633Z,9.47
2023-01-29T08:08:19.488Z,10.50
2023-01-29T08:10:47.312Z,9.88
2023-01-29T08:13:15.057Z,9.57
2023-01-29T08:15:46.081Z,8.48
2023-01-29T08:18:14.288Z,10.00
2023-01-29T08:20:42.215Z,8.60
2023-01-29T08:23:12.191Z,9.60
2023-01-29T08:25:41.270Z,10.52
2023-01-29T08:28:09.948Z,10.18
2023-01-29T08:30:37.783Z,12.47
2023-01-29T08:33:05.791Z,10.52
2023-01-29T08:35:33.673Z,9.40
2023-01-29T08:38:02.192Z,12.03
2023-01-29T08:40:32.079Z,9.55
2023-01-29T08:43:07.765Z,10.07
2023-01-29T08:45:37.493Z,7.90
2023-01-29T08:48:05.418Z,8.35
2023-01-29T08:50:35.066Z,9.82
2023-01-29T08:53:03.365Z,11.80
2023-01-29T08:55:31.204Z,7.73
2023-01-29T08:57:58.927Z,10.48
2023-01-29T09:00:26.776Z,12.23
2023-01-29T09:02:54.542Z,11.27
2023-01-29T09:05:22.234Z,10.63
2023-01-29T09:07:49.995Z,11.05
2023-01-29T09:10:18.064Z,10.77
2023-01-29T09:12:45.814Z,11.43
2023-01-29T09:15:13.588Z,10.75
2023-01-29T09:17:41.387Z,10.00
2023-01-29T09:20:09.444Z,10.60
2023-01-29T09:22:37.280Z,10.80
2023-01-29T09:25:05.216Z,9.02
2023-01-29T09:27:32.980Z,12.00
2023-01-29T09:30:00.985Z,11.73
2023-01-29T09:32:52.608Z,10.82
2023-01-29T09:35:18.711Z,18.63
2023-01-29T09:37:49.702Z,17.63
2023-01-29T09:40:38.900Z,10.45
2023-01-29T09:43:15.109Z,10.68
2023-01-29T09:45:51.279Z,10.73
2023-01-29T09:48:18.941Z,8.40
2023-01-29T09:50:47.879Z,11.07
2023-01-29T09:53:20.210Z,11.23
2023-01-29T09:56:08.256Z,10.65
2023-01-29T09:58:36.611Z,9.65
2023-01-29T10:01:13.783Z,9.60
2023-01-29T10:03:53.567Z,10.73
2023-01-29T10:06:33.030Z,9.82
2023-01-29T10:09:00.760Z,11.15
2023-01-29T10:11:31.564Z,9.17
2023-01-29T10:14:02.045Z,11.02
2023-01-29T10:16:29.806Z,8.88
2023-01-29T10:19:03.975Z,11.50
2023-01-29T10:21:37.807Z,9.95
2023-01-29T10:24:05.657Z,11.15
2023-01-29T10:26:36.110Z,10.87
2023-01-29T10:29:04.025Z,9.98
2023-01-29T10:31:33.402Z,10.32
2023-01-29T10:34:03.109Z,9.85
2023-01-29T10:36:44.791Z,7.53
2023-01-29T10:39:22.013Z,10.27
2023-01-29T10:42:05.825Z,9.90
2023-01-29T10:44:33.555Z,10.60
2023-01-29T10:47:19.765Z,10.63
2023-01-29T10:50:00.733Z,10.52
2023-01-29T10:52:51.854Z,11.03
2023-01-29T10:55:37.783Z,10.40
2023-01-29T10:58:08.409Z,9.43
2023-01-29T11:00:37.281Z,9.85
2023-01-29T11:03:27.914Z,9.83
2023-01-29T11:06:07.874Z,9.30
2023-01-29T11:08:38.646Z,11.38
2023-01-29T11:11:17.365Z,10.13
2023-01-29T11:13:55.859Z,10.68
2023-01-29T11:16:23.622Z,8.70
2023-01-29T11:18:51.338Z,8.63
2023-01-29T11:21:19.211Z,9.15
2023-01-29T11:23:47.001Z,8.15
2023-01-29T11:26:15.468Z,8.45
2023-01-29T11:28:44.052Z,8.97
2023-01-29T11:31:17.659Z,8.60
2023-01-29T11:33:45.758Z,8.15
2023-01-29T11:36:22.683Z,7.80
2023-01-29T11:38:57.465Z,7.15
2023-01-29T11:41:25.658Z,11.43
2023-01-29T11:43:53.436Z,8.73
2023-01-29T11:46:21.104Z,9.15
2023-01-29T11:48:51.686Z,8.27
2023-01-29T11:51:23.291Z,8.43
2023-01-29T11:53:52.370Z,8.57
2023-01-29T11:56:21.937Z,8.30
2023-01-29T11:58:50.046Z,8.60
2023-01-29T12:01:18.456Z,7.50
2023-01-29T12:03:52.213Z,9.13
2023-01-29T12:06:24.131Z,8.80
2023-01-29T12:08:58.970Z,7.43
2023-01-29T12:11:28.740Z,7.07
2023-01-29T12:14:00.968Z,6.78
2023-01-29T12:16:29.043Z,4.20
2023-01-29T12:18:58.959Z,6.87
2023-01-29T12:21:34.672Z,6.68
2023-01-29T12:24:08.071Z,5.63
2023-01-29T12:26:39.654Z,5.37
2023-01-29T12:29:25.800Z,7.55
2023-01-29T12:32:05.876Z,5.68
2023-01-29T12:34:46.939Z,8.87
2023-01-29T12:37:18.230Z,6.75
2023-01-29T12:39:45.970Z,6.68
2023-01-29T12:42:17.994Z,5.43
2023-01-29T12:44:53.648Z,7.13
2023-01-29T12:47:24.545Z,5.22
2023-01-29T12:49:53.483Z,7.05
2023-01-29T12:52:36.451Z,5.60
2023-01-29T12:55:04.983Z,7.80
2023-01-29T12:57:55.982Z,8.65
2023-01-29T13:00:24.820Z,4.73
2023-01-29T13:03:04.932Z,5.68
2023-01-29T13:05:37.698Z,5.80
2023-01-29T13:08:06.992Z,5.72
2023-01-29T13:10:37.286Z,5.87
2023-01-29T13:13:06.294Z,5.50
2023-01-29T13:15:40.308Z,5.78
2023-01-29T13:18:26.608Z,6.00
2023-01-29T13:20:54.497Z,6.38
2023-01-29T13:23:42.563Z,5.47
2023-01-29T13:26:11.868Z,5.20
2023-01-29T13:28:40.757Z,5.10
2023-01-29T13:31:12.656Z,5.07
2023-01-29T13:33:41.354Z,4.55
2023-01-29T13:36:13.233Z,5.47
2023-01-29T13:38:42.328Z,4.82
2023-01-29T13:41:10.026Z,5.00
2023-01-29T13:43:38.550Z,4.03
2023-01-29T13:46:13.118Z,5.18
2023-01-29T13:48:44.716Z,5.55
2023-01-29T13:51:15.855Z,6.20
2023-01-29T13:53:43.602Z,6.65
2023-01-29T13:56:30.345Z,6.78
2023-01-29T13:58:58.552Z,6.25
2023-01-29T14:01:44.987Z,8.97
2023-01-29T14:04:25.699Z,7.25
2023-01-29T14:06:54.234Z,7.22
2023-01-29T14:09:35.508Z,5.07
2023-01-29T14:12:03.370Z,5.65
2023-01-29T14:14:49.251Z,4.47
2023-01-29T14:17:17.272Z,4.60
2023-01-29T14:19:48.672Z,4.43
2023-01-29T14:22:22.961Z,5.07
2023-01-29T14:24:50.895Z,4.35
2023-01-29T14:27:20.675Z,4.63
2023-01-29T14:29:48.510Z,3.42
2023-01-29T14:32:19.959Z,3.78
2023-01-29T14:34:57.481Z,5.00
2023-01-29T14:37:39.311Z,4.75
2023-01-29T14:40:12.865Z,4.63
2023-01-29T14:42:44.882Z,5.10
2023-01-29T14:45:24.958Z,4.22
2023-01-29T14:47:53.568Z,4.88
2023-01-29T14:50:33.328Z,5.43
2023-01-29T14:53:12.983Z,4.30
2023-01-29T14:55:41.951Z,5.00
2023-01-29T14:58:17.466Z,4.90
2023-01-29T15:00:46.214Z,4.93
2023-01-29T15:03:20.795Z,6.43
2023-01-29T15:05:48.693Z,5.80
2023-01-29T15:08:30.124Z,7.23
2023-01-29T15:11:20.313Z,5.85
2023-01-29T15:13:54.223Z,7.65
2023-01-29T15:16:23.680Z,5.90
2023-01-29T15:18:51.856Z,7.93
2023-01-29T15:21:20.015Z,9.48
2023-01-29T15:23:50.473Z,7.53
2023-01-29T15:26:21.979Z,7.77
2023-01-29T15:29:04.270Z,8.43
2023-01-29T15:31:32.763Z,8.00
2023-01-29T15:34:03.110Z,7.70
2023-01-29T15:36:31.437Z,7.20
2023-01-29T15:39:29.796Z,7.32
2023-01-29T15:42:13.896Z,7.20
2023-01-29T15:44:45.687Z,7.23
2023-01-29T15:47:13.572Z,6.95
2023-01-29T15:49:41.465Z,6.95
2023-01-29T15:52:09.886Z,6.83
2023-01-29T15:54:37.679Z,5.25
2023-01-29T15:57:05.529Z,7.13
2023-01-29T15:59:36.336Z,6.27
2023-01-29T16:02:22.253Z,7.03
2023-01-29T16:04:50.045Z,7.07
2023-01-29T16:07:17.732Z,7.72
2023-01-29T16:09:45.557Z,7.80
2023-01-29T16:12:13.350Z,7.10
2023-01-29T16:14:41.099Z,5.53
2023-01-29T16:17:14.381Z,8.13
2023-01-29T16:19:42.086Z,8.48
2023-01-29T16:22:09.856Z,7.93
2023-01-29T16:24:38.241Z,9.47
2023-01-29T16:27:10.139Z,7.93
2023-01-29T16:29:39.151Z,7.88
2023-01-29T16:32:07.067Z,7.65
2023-01-29T16:34:37.977Z,7.83
2023-01-29T16:37:06.690Z,6.88
2023-01-29T16:39:35.364Z,6.90
2023-01-29T16:42:20.070Z,8.40
2023-01-29T16:44:47.906Z,8.18
2023-01-29T16:47:16.703Z,7.03
2023-01-29T16:49:44.795Z,7.03
2023-01-29T16:52:35.612Z,8.00
2023-01-29T16:55:16.311Z,7.35
2023-01-29T16:57:44.399Z,7.68
2023-01-29T17:00:19.683Z,6.20
2023-01-29T17:02:47.433Z,5.97
2023-01-29T17:05:28.373Z,7.90
2023-01-29T17:07:59.095Z,8.10
2023-01-29T17:10:27.263Z,8.43
2023-01-29T17:13:04.189Z,6.13
2023-01-29T17:16:02.912Z,6.53
2023-01-29T17:18:30.845Z,6.53
2023-01-29T17:20:58.685Z,8.82
2023-01-29T17:23:26.446Z,8.80
2023-01-29T17:25:54.145Z,9.83
2023-01-29T17:28:22.255Z,7.70
2023-01-29T17:31:04.208Z,7.85
2023-01-29T17:33:33.484Z,8.13
2023-01-29T17:36:01.207Z,6.10
2023-01-29T17:38:28.967Z,9.88
2023-01-29T17:40:57.487Z,10.33
2023-01-29T17:43:25.319Z,11.85
2023-01-29T17:45:53.103Z,6.50
2023-01-29T17:48:20.857Z,9.10
2023-01-29T17:50:48.742Z,8.43
2023-01-29T17:53:16.678Z,8.85
2023-01-29T17:55:44.589Z,9.07
2023-01-29T17:58:21.967Z,9.13
2023-01-29T18:00:49.839Z,7.00
2023-01-29T18:03:17.626Z,6.88
2023-01-29T18:05:46.240Z,8.73
2023-01-29T18:08:17.540Z,8.00
2023-01-29T18:10:45.908Z,5.75
2023-01-29T18:13:13.879Z,8.23
2023-01-29T18:15:41.666Z,8.03
2023-01-29T18:18:11.323Z,6.70
2023-01-29T18:20:40.402Z,6.18
2023-01-29T18:23:08.805Z,8.40
2023-01-29T18:25:36.623Z,6.13
2023-01-29T18:28:04.524Z,6.93
2023-01-29T18:30:32.220Z,7.17
2023-01-29T18:33:00.086Z,6.78
2023-01-29T18:35:28.106Z,7.30
2023-01-29T18:37:56.064Z,7.90
2023-01-29T18:40:23.759Z,6.43
2023-01-29T18:42:52.089Z,5.88
2023-01-29T18:45:20.214Z,6.45
2023-01-29T18:47:48.917Z,5.93
2023-01-29T18:50:16.819Z,6.78
2023-01-29T18:52:45.135Z,5.43
2023-01-29T18:55:12.900Z,5.43
2023-01-29T18:58:26.784Z,5.78
2023-01-29T19:00:28.587Z,5.68
2023-01-29T19:02:56.317Z,5.13
2023-01-29T19:05:25.980Z,6.03
2023-01-29T19:07:53.771Z,6.32
2023-01-29T19:10:21.513Z,6.70
2023-01-29T19:12:50.403Z,6.87
2023-01-29T19:15:21.968Z,4.78
2023-01-29T19:17:50.710Z,5.70
2023-01-29T19:20:18.862Z,6.30
2023-01-29T19:22:46.925Z,7.72
2023-01-29T19:25:14.963Z,6.50
2023-01-29T19:27:42.731Z,5.05
2023-01-29T19:30:13.063Z,7.00
2023-01-29T19:32:41.199Z,7.30
2023-01-29T19:35:09.083Z,6.35
2023-01-29T19:37:36.883Z,8.00
2023-01-29T19:40:04.863Z,6.47
2023-01-29T19:42:32.717Z,6.40
2023-01-29T19:45:00.770Z,7.10
2023-01-29T19:47:28.538Z,7.40
2023-01-29T19:50:00.015Z,6.75
2023-01-29T19:52:50.266Z,6.97
2023-01-29T19:55:19.807Z,6.57
2023-01-29T19:57:48.880Z,8.40
2023-01-29T20:00:17.676Z,5.65
2023-01-29T20:02:46.296Z,8.27
2023-01-29T20:05:18.836Z,8.38
2023-01-29T20:07:54.298Z,8.38
2023-01-29T20:10:23.833Z,8.53
2023-01-29T20:12:51.990Z,9.00
2023-01-29T20:15:22.884Z,11.30
2023-01-29T20:17:50.743Z,8.57
2023-01-29T20:20:18.986Z,7.87
2023-01-29T20:22:47.548Z,7.35
2023-01-29T20:25:20.016Z,8.90
2023-01-29T20:27:47.780Z,8.90
2023-01-29T20:30:16.165Z,8.20
2023-01-29T20:32:45.122Z,7.95
2023-01-29T20:35:14.113Z,9.43
2023-01-29T20:37:42.066Z,8.43
2023-01-29T20:40:10.326Z,9.30
2023-01-29T20:42:39.401Z,8.98
2023-01-29T20:45:07.280Z,8.33
2023-01-29T20:47:35.283Z,7.68
2023-01-29T20:50:10.814Z,8.63
2023-01-29T20:52:39.089Z,7.67
2023-01-29T20:55:07.624Z,8.05
2023-01-29T20:57:35.733Z,8.65
2023-01-29T21:00:03.814Z,7.67
2023-01-29T21:02:31.579Z,6.93
2023-01-29T21:04:59.388Z,7.50
2023-01-29T21:07:27.123Z,8.00
2023-01-29T21:09:54.940Z,6.00
2023-01-29T21:12:22.713Z,9.82
2023-01-29T21:14:50.380Z,6.90
2023-01-29T21:17:18.166Z,8.33
2023-01-29T21:19:45.842Z,7.38
2023-01-29T21:22:13.602Z,6.93
2023-01-29T21:24:41.298Z,7.50
2023-01-29T21:27:09.123Z,6.57
2023-01-29T21:29:37.833Z,6.85
2023-01-29T21:32:05.800Z,7.95
2023-01-29T21:34:35.799Z,5.10
2023-01-29T21:37:03.527Z,7.60
2023-01-29T21:39:31.206Z,7.10
2023-01-29T21:42:17.847Z,6.67
2023-01-29T21:44:45.550Z,5.50
2023-01-29T21:47:14.529Z,7.10
2023-01-29T21:49:42.645Z,6.83
2023-01-29T21:52:11.339Z,6.50
2023-01-29T21:54:45.904Z,6.80
2023-01-29T21:57:15.493Z,5.90
2023-01-29T21:59:43.687Z,6.87
2023-01-29T22:02:20.454Z,5.95
2023-01-29T22:04:48.121Z,6.22
2023-01-29T22:07:15.865Z,7.13
2023-01-29T22:09:43.629Z,6.07
2023-01-29T22:12:13.895Z,6.35
2023-01-29T22:14:44.943Z,6.63
2023-01-29T22:17:12.822Z,7.65
2023-01-29T22:19:40.634Z,6.47
2023-01-29T22:22:10.200Z,6.30
2023-01-29T22:24:37.918Z,6.17
2023-01-29T22:27:05.640Z,5.40
2023-01-29T22:29:33.424Z,6.63
2023-01-29T22:32:02.649Z,5.53
2023-01-29T22:34:30.497Z,6.55
2023-01-29T22:36:58.172Z,6.72
2023-01-29T22:39:25.900Z,7.23
2023-01-29T22:41:53.643Z,6.60
2023-01-29T22:44:21.414Z,6.80
2023-01-29T22:46:49.687Z,5.55
2023-01-29T22:49:17.654Z,7.03
2023-01-29T22:51:45.390Z,5.80
2023-01-29T22:54:14.118Z,4.80
2023-01-29T22:56:41.897Z,5.20
2023-01-29T22:59:10.265Z,5.70
2023-01-29T23:01:38.099Z,4.43
2023-01-29T23:04:05.846Z,4.23
2023-01-29T23:06:33.567Z,4.40
2023-01-29T23:09:01.284Z,3.90
2023-01-29T23:11:29.035Z,4.22
2023-01-29T23:13:56.753Z,4.43
2023-01-29T23:16:27.940Z,4.32
2023-01-29T23:18:56.115Z,3.17
2023-01-29T23:21:25.233Z,3.27
2023-01-29T23:23:55.413Z,2.90
2023-01-29T23:26:42.167Z,3.10
2023-01-29T23:29:09.892Z,2.80
2023-01-29T23:31:37.776Z,2.72
2023-01-29T23:34:05.543Z,3.10
2023-01-29T23:36:33.514Z,3.25
2023-01-29T23:39:01.268Z,2.33
2023-01-29T23:41:29.090Z,2.60
2023-01-29T23:43:56.824Z,2.28
2023-01-29T23:46:24.610Z,2.53
2023-01-29T23:48:52.476Z,1.90
2023-01-29T23:51:20.223Z,2.22
2023-01-29T23:53:48.003Z,3.37
2023-01-29T23:56:15.784Z,1.88
2023-01-29T23:58:44.193Z,2.03
